sensor_id;sensor_type;location;lat;lon;timestamp;P1;durP1;ratioP1;P2;durP2;ratioP2
61250;SDS011;47126;47.508;8.590;2024-02-23T00:02:11;2.00;;;0.30;;
61250;SDS011;47126;47.508;8.590;2024-02-23T00:04:37;0.20;;;0.20;;
61250;SDS011;47126;47.508;8.590;2024-02-23T00:07:03;0.20;;;0.20;;
61250;SDS011;47126;47.508;8.590;2024-02-23T00:09:29;0.93;;;0.30;;
61250;SDS011;47126;47.508;8.590;2024-02-23T00:11:55;0.30;;;0.30;;
61250;SDS011;47126;47.508;8.590;2024-02-23T00:14:21;1.48;;;0.20;;
61250;SDS011;47126;47.508;8.590;2024-02-23T00:16:47;0.17;;;0.17;;
61250;SDS011;47126;47.508;8.590;2024-02-23T00:19:13;0.30;;;0.30;;
61250;SDS011;47126;47.508;8.590;2024-02-23T00:21:42;0.55;;;0.30;;
61250;SDS011;47126;47.508;8.590;2024-02-23T00:24:12;0.32;;;0.22;;
61250;SDS011;47126;47.508;8.590;2024-02-23T00:26:38;0.30;;;0.20;;
61250;SDS011;47126;47.508;8.590;2024-02-23T00:29:04;0.32;;;0.20;;
61250;SDS011;47126;47.508;8.590;2024-02-23T00:31:30;0.90;;;0.30;;
61250;SDS011;47126;47.508;8.590;2024-02-23T00:33:56;0.35;;;0.30;;
61250;SDS011;47126;47.508;8.590;2024-02-23T00:36:22;0.70;;;0.30;;
61250;SDS011;47126;47.508;8.590;2024-02-23T00:38:48;0.20;;;0.20;;
61250;SDS011;47126;47.508;8.590;2024-02-23T00:41:14;0.25;;;0.25;;
61250;SDS011;47126;47.508;8.590;2024-02-23T00:43:41;1.13;;;0.25;;
61250;SDS011;47126;47.508;8.590;2024-02-23T00:46:07;0.20;;;0.20;;
61250;SDS011;47126;47.508;8.590;2024-02-23T00:48:33;0.10;;;0.10;;
61250;SDS011;47126;47.508;8.590;2024-02-23T00:51:00;0.20;;;0.20;;
61250;SDS011;47126;47.508;8.590;2024-02-23T00:53:27;2.72;;;0.38;;
61250;SDS011;47126;47.508;8.590;2024-02-23T00:55:53;0.90;;;0.80;;
61250;SDS011;47126;47.508;8.590;2024-02-23T00:58:19;0.82;;;0.25;;
61250;SDS011;47126;47.508;8.590;2024-02-23T01:00:45;0.55;;;0.30;;
61250;SDS011;47126;47.508;8.590;2024-02-23T01:03:11;0.30;;;0.22;;
61250;SDS011;47126;47.508;8.590;2024-02-23T01:05:37;0.52;;;0.20;;
61250;SDS011;47126;47.508;8.590;2024-02-23T01:08:04;0.20;;;0.20;;
61250;SDS011;47126;47.508;8.590;2024-02-23T01:10:30;0.30;;;0.20;;
61250;SDS011;47126;47.508;8.590;2024-02-23T01:12:56;0.20;;;0.20;;
61250;SDS011;47126;47.508;8.590;2024-02-23T01:15:22;0.45;;;0.30;;
61250;SDS011;47126;47.508;8.590;2024-02-23T01:17:48;0.25;;;0.20;;
61250;SDS011;47126;47.508;8.590;2024-02-23T01:20:14;1.45;;;0.40;;
61250;SDS011;47126;47.508;8.590;2024-02-23T01:22:40;0.20;;;0.20;;
61250;SDS011;47126;47.508;8.590;2024-02-23T01:25:06;0.57;;;0.57;;
61250;SDS011;47126;47.508;8.590;2024-02-23T01:27:32;0.20;;;0.20;;
61250;SDS011;47126;47.508;8.590;2024-02-23T01:29:58;0.20;;;0.20;;
61250;SDS011;47126;47.508;8.590;2024-02-23T01:32:25;0.15;;;0.15;;
61250;SDS011;47126;47.508;8.590;2024-02-23T01:34:51;0.20;;;0.20;;
61250;SDS011;47126;47.508;8.590;2024-02-23T01:37:17;0.20;;;0.20;;
61250;SDS011;47126;47.508;8.590;2024-02-23T01:39:43;0.30;;;0.20;;
61250;SDS011;47126;47.508;8.590;2024-02-23T01:42:09;1.27;;;0.45;;
61250;SDS011;47126;47.508;8.590;2024-02-23T01:44:35;3.58;;;0.40;;
61250;SDS011;47126;47.508;8.590;2024-02-23T01:47:01;0.20;;;0.20;;
61250;SDS011;47126;47.508;8.590;2024-02-23T01:49:28;0.30;;;0.20;;
61250;SDS011;47126;47.508;8.590;2024-02-23T01:51:58;0.20;;;0.20;;
61250;SDS011;47126;47.508;8.590;2024-02-23T01:54:25;0.63;;;0.28;;
61250;SDS011;47126;47.508;8.590;2024-02-23T01:56:53;0.22;;;0.22;;
61250;SDS011;47126;47.508;8.590;2024-02-23T01:59:19;1.75;;;0.20;;
61250;SDS011;47126;47.508;8.590;2024-02-23T02:01:45;0.35;;;0.25;;
61250;SDS011;47126;47.508;8.590;2024-02-23T02:04:11;0.20;;;0.20;;
61250;SDS011;47126;47.508;8.590;2024-02-23T02:06:38;0.52;;;0.22;;
61250;SDS011;47126;47.508;8.590;2024-02-23T02:09:04;3.55;;;0.38;;
61250;SDS011;47126;47.508;8.590;2024-02-23T02:11:30;0.40;;;0.30;;
61250;SDS011;47126;47.508;8.590;2024-02-23T02:13:57;1.27;;;0.30;;
61250;SDS011;47126;47.508;8.590;2024-02-23T02:16:23;1.88;;;0.43;;
61250;SDS011;47126;47.508;8.590;2024-02-23T02:18:49;1.77;;;0.82;;
61250;SDS011;47126;47.508;8.590;2024-02-23T02:21:15;2.60;;;0.52;;
61250;SDS011;47126;47.508;8.590;2024-02-23T02:23:41;1.02;;;0.40;;
61250;SDS011;47126;47.508;8.590;2024-02-23T02:26:07;0.52;;;0.35;;
61250;SDS011;47126;47.508;8.590;2024-02-23T02:28:33;0.82;;;0.38;;
61250;SDS011;47126;47.508;8.590;2024-02-23T02:30:59;1.20;;;0.32;;
61250;SDS011;47126;47.508;8.590;2024-02-23T02:33:25;0.63;;;0.40;;
61250;SDS011;47126;47.508;8.590;2024-02-23T02:35:51;1.20;;;0.65;;
61250;SDS011;47126;47.508;8.590;2024-02-23T02:38:17;1.70;;;0.50;;
61250;SDS011;47126;47.508;8.590;2024-02-23T02:40:43;2.00;;;1.00;;
61250;SDS011;47126;47.508;8.590;2024-02-23T02:43:09;1.20;;;0.40;;
61250;SDS011;47126;47.508;8.590;2024-02-23T02:45:35;0.40;;;0.40;;
61250;SDS011;47126;47.508;8.590;2024-02-23T02:48:03;0.20;;;0.20;;
61250;SDS011;47126;47.508;8.590;2024-02-23T02:50:29;0.43;;;0.40;;
61250;SDS011;47126;47.508;8.590;2024-02-23T02:52:55;0.52;;;0.32;;
61250;SDS011;47126;47.508;8.590;2024-02-23T02:55:21;4.22;;;1.90;;
61250;SDS011;47126;47.508;8.590;2024-02-23T02:57:47;6.75;;;3.35;;
61250;SDS011;47126;47.508;8.590;2024-02-23T03:00:13;5.88;;;2.65;;
61250;SDS011;47126;47.508;8.590;2024-02-23T03:02:39;5.72;;;2.30;;
61250;SDS011;47126;47.508;8.590;2024-02-23T03:05:05;2.75;;;1.40;;
61250;SDS011;47126;47.508;8.590;2024-02-23T03:07:31;2.58;;;1.00;;
61250;SDS011;47126;47.508;8.590;2024-02-23T03:09:57;4.75;;;0.70;;
61250;SDS011;47126;47.508;8.590;2024-02-23T03:12:23;1.63;;;0.73;;
61250;SDS011;47126;47.508;8.590;2024-02-23T03:14:49;1.15;;;0.40;;
61250;SDS011;47126;47.508;8.590;2024-02-23T03:17:15;0.73;;;0.40;;
61250;SDS011;47126;47.508;8.590;2024-02-23T03:19:41;0.50;;;0.43;;
61250;SDS011;47126;47.508;8.590;2024-02-23T03:22:07;1.75;;;0.35;;
61250;SDS011;47126;47.508;8.590;2024-02-23T03:24:34;0.43;;;0.43;;
61250;SDS011;47126;47.508;8.590;2024-02-23T03:27:00;0.40;;;0.40;;
61250;SDS011;47126;47.508;8.590;2024-02-23T03:29:26;0.57;;;0.40;;
61250;SDS011;47126;47.508;8.590;2024-02-23T03:31:55;1.02;;;0.40;;
61250;SDS011;47126;47.508;8.590;2024-02-23T03:34:21;1.05;;;0.50;;
61250;SDS011;47126;47.508;8.590;2024-02-23T03:36:47;0.32;;;0.30;;
61250;SDS011;47126;47.508;8.590;2024-02-23T03:39:13;0.30;;;0.30;;
61250;SDS011;47126;47.508;8.590;2024-02-23T03:41:39;2.45;;;0.45;;
61250;SDS011;47126;47.508;8.590;2024-02-23T03:44:05;0.47;;;0.47;;
61250;SDS011;47126;47.508;8.590;2024-02-23T03:46:31;0.20;;;0.20;;
61250;SDS011;47126;47.508;8.590;2024-02-23T03:48:57;0.40;;;0.40;;
61250;SDS011;47126;47.508;8.590;2024-02-23T03:51:23;2.70;;;0.75;;
61250;SDS011;47126;47.508;8.590;2024-02-23T03:53:49;0.63;;;0.47;;
61250;SDS011;47126;47.508;8.590;2024-02-23T03:56:16;2.17;;;0.60;;
61250;SDS011;47126;47.508;8.590;2024-02-23T03:58:42;1.05;;;0.80;;
61250;SDS011;47126;47.508;8.590;2024-02-23T04:01:08;0.88;;;0.73;;
61250;SDS011;47126;47.508;8.590;2024-02-23T04:03:34;1.10;;;0.70;;
61250;SDS011;47126;47.508;8.590;2024-02-23T04:06:00;1.58;;;0.80;;
61250;SDS011;47126;47.508;8.590;2024-02-23T04:08:26;2.67;;;0.98;;
61250;SDS011;47126;47.508;8.590;2024-02-23T04:10:52;1.92;;;0.90;;
61250;SDS011;47126;47.508;8.590;2024-02-23T04:13:19;1.35;;;0.80;;
61250;SDS011;47126;47.508;8.590;2024-02-23T04:15:45;1.58;;;0.63;;
61250;SDS011;47126;47.508;8.590;2024-02-23T04:18:11;2.92;;;1.15;;
61250;SDS011;47126;47.508;8.590;2024-02-23T04:20:37;7.00;;;0.80;;
61250;SDS011;47126;47.508;8.590;2024-02-23T04:23:03;3.60;;;1.00;;
61250;SDS011;47126;47.508;8.590;2024-02-23T04:25:29;2.50;;;1.48;;
61250;SDS011;47126;47.508;8.590;2024-02-23T04:27:55;3.08;;;1.88;;
61250;SDS011;47126;47.508;8.590;2024-02-23T04:30:21;3.47;;;1.50;;
61250;SDS011;47126;47.508;8.590;2024-02-23T04:32:47;1.77;;;1.42;;
61250;SDS011;47126;47.508;8.590;2024-02-23T04:35:13;4.20;;;1.58;;
61250;SDS011;47126;47.508;8.590;2024-02-23T04:37:42;1.95;;;1.33;;
61250;SDS011;47126;47.508;8.590;2024-02-23T04:40:09;2.92;;;1.40;;
61250;SDS011;47126;47.508;8.590;2024-02-23T04:42:35;2.80;;;1.13;;
61250;SDS011;47126;47.508;8.590;2024-02-23T04:45:01;1.92;;;1.00;;
61250;SDS011;47126;47.508;8.590;2024-02-23T04:47:27;3.05;;;0.93;;
61250;SDS011;47126;47.508;8.590;2024-02-23T04:49:53;2.80;;;1.17;;
61250;SDS011;47126;47.508;8.590;2024-02-23T04:52:19;6.65;;;0.82;;
61250;SDS011;47126;47.508;8.590;2024-02-23T04:54:45;1.40;;;1.05;;
61250;SDS011;47126;47.508;8.590;2024-02-23T04:57:11;1.83;;;1.35;;
61250;SDS011;47126;47.508;8.590;2024-02-23T04:59:38;2.47;;;1.33;;
61250;SDS011;47126;47.508;8.590;2024-02-23T05:02:04;1.15;;;0.80;;
61250;SDS011;47126;47.508;8.590;2024-02-23T05:04:30;1.23;;;0.80;;
61250;SDS011;47126;47.508;8.590;2024-02-23T05:06:56;2.03;;;0.80;;
61250;SDS011;47126;47.508;8.590;2024-02-23T05:09:22;1.00;;;0.82;;
61250;SDS011;47126;47.508;8.590;2024-02-23T05:11:49;0.85;;;0.73;;
61250;SDS011;47126;47.508;8.590;2024-02-23T05:14:15;3.72;;;1.10;;
61250;SDS011;47126;47.508;8.590;2024-02-23T05:16:49;2.10;;;1.02;;
61250;SDS011;47126;47.508;8.590;2024-02-23T05:19:15;2.38;;;0.85;;
61250;SDS011;47126;47.508;8.590;2024-02-23T05:21:42;1.63;;;1.00;;
61250;SDS011;47126;47.508;8.590;2024-02-23T05:24:08;1.25;;;0.77;;
61250;SDS011;47126;47.508;8.590;2024-02-23T05:26:34;10.13;;;1.17;;
61250;SDS011;47126;47.508;8.590;2024-02-23T05:29:00;1.60;;;1.05;;
61250;SDS011;47126;47.508;8.590;2024-02-23T05:31:43;3.65;;;0.98;;
61250;SDS011;47126;47.508;8.590;2024-02-23T05:34:09;1.13;;;0.70;;
61250;SDS011;47126;47.508;8.590;2024-02-23T05:36:35;4.45;;;0.80;;
61250;SDS011;47126;47.508;8.590;2024-02-23T05:39:01;1.52;;;0.90;;
61250;SDS011;47126;47.508;8.590;2024-02-23T05:41:28;2.05;;;0.80;;
61250;SDS011;47126;47.508;8.590;2024-02-23T05:43:54;0.63;;;0.63;;
61250;SDS011;47126;47.508;8.590;2024-02-23T05:46:21;3.60;;;1.25;;
61250;SDS011;47126;47.508;8.590;2024-02-23T05:48:47;1.65;;;0.90;;
61250;SDS011;47126;47.508;8.590;2024-02-23T05:51:13;1.83;;;1.20;;
61250;SDS011;47126;47.508;8.590;2024-02-23T05:53:40;0.98;;;0.80;;
61250;SDS011;47126;47.508;8.590;2024-02-23T05:56:07;7.05;;;1.52;;
61250;SDS011;47126;47.508;8.590;2024-02-23T05:58:34;5.15;;;1.88;;
61250;SDS011;47126;47.508;8.590;2024-02-23T06:01:01;4.43;;;1.40;;
61250;SDS011;47126;47.508;8.590;2024-02-23T06:03:27;2.83;;;1.45;;
61250;SDS011;47126;47.508;8.590;2024-02-23T06:05:53;4.10;;;2.28;;
61250;SDS011;47126;47.508;8.590;2024-02-23T06:08:19;5.45;;;1.80;;
61250;SDS011;47126;47.508;8.590;2024-02-23T06:10:45;3.33;;;1.85;;
61250;SDS011;47126;47.508;8.590;2024-02-23T06:13:11;6.28;;;3.90;;
61250;SDS011;47126;47.508;8.590;2024-02-23T06:15:37;5.18;;;2.75;;
61250;SDS011;47126;47.508;8.590;2024-02-23T06:18:03;4.63;;;2.38;;
61250;SDS011;47126;47.508;8.590;2024-02-23T06:20:29;4.63;;;1.80;;
61250;SDS011;47126;47.508;8.590;2024-02-23T06:22:55;2.13;;;1.60;;
61250;SDS011;47126;47.508;8.590;2024-02-23T06:25:24;3.67;;;2.25;;
61250;SDS011;47126;47.508;8.590;2024-02-23T06:27:50;4.82;;;2.50;;
61250;SDS011;47126;47.508;8.590;2024-02-23T06:30:16;4.53;;;2.05;;
61250;SDS011;47126;47.508;8.590;2024-02-23T06:32:42;6.03;;;2.10;;
61250;SDS011;47126;47.508;8.590;2024-02-23T06:35:10;3.95;;;2.05;;
61250;SDS011;47126;47.508;8.590;2024-02-23T06:37:37;2.75;;;1.83;;
61250;SDS011;47126;47.508;8.590;2024-02-23T06:40:03;2.00;;;1.00;;
61250;SDS011;47126;47.508;8.590;2024-02-23T06:42:32;1.73;;;1.10;;
61250;SDS011;47126;47.508;8.590;2024-02-23T06:44:58;2.63;;;1.45;;
61250;SDS011;47126;47.508;8.590;2024-02-23T06:47:24;3.55;;;1.80;;
61250;SDS011;47126;47.508;8.590;2024-02-23T06:49:50;4.25;;;2.33;;
61250;SDS011;47126;47.508;8.590;2024-02-23T06:52:16;8.57;;;2.50;;
61250;SDS011;47126;47.508;8.590;2024-02-23T06:54:43;4.85;;;2.03;;
61250;SDS011;47126;47.508;8.590;2024-02-23T06:57:10;5.38;;;1.85;;
61250;SDS011;47126;47.508;8.590;2024-02-23T06:59:36;4.00;;;1.80;;
61250;SDS011;47126;47.508;8.590;2024-02-23T07:02:02;2.70;;;1.50;;
61250;SDS011;47126;47.508;8.590;2024-02-23T07:04:29;3.15;;;1.80;;
61250;SDS011;47126;47.508;8.590;2024-02-23T07:06:55;4.95;;;2.13;;
61250;SDS011;47126;47.508;8.590;2024-02-23T07:09:24;5.22;;;2.08;;
61250;SDS011;47126;47.508;8.590;2024-02-23T07:11:51;2.95;;;1.60;;
61250;SDS011;47126;47.508;8.590;2024-02-23T07:14:17;4.05;;;1.45;;
61250;SDS011;47126;47.508;8.590;2024-02-23T07:16:45;4.95;;;1.38;;
61250;SDS011;47126;47.508;8.590;2024-02-23T07:19:11;3.95;;;1.90;;
61250;SDS011;47126;47.508;8.590;2024-02-23T07:21:38;2.13;;;1.50;;
61250;SDS011;47126;47.508;8.590;2024-02-23T07:24:04;5.68;;;1.85;;
61250;SDS011;47126;47.508;8.590;2024-02-23T07:26:30;4.63;;;2.20;;
61250;SDS011;47126;47.508;8.590;2024-02-23T07:28:56;4.68;;;2.25;;
61250;SDS011;47126;47.508;8.590;2024-02-23T07:31:22;4.75;;;1.67;;
61250;SDS011;47126;47.508;8.590;2024-02-23T07:33:49;4.57;;;2.40;;
61250;SDS011;47126;47.508;8.590;2024-02-23T07:36:16;4.35;;;2.80;;
61250;SDS011;47126;47.508;8.590;2024-02-23T07:38:42;6.30;;;3.17;;
61250;SDS011;47126;47.508;8.590;2024-02-23T07:41:10;3.25;;;1.33;;
61250;SDS011;47126;47.508;8.590;2024-02-23T07:43:36;6.32;;;3.17;;
61250;SDS011;47126;47.508;8.590;2024-02-23T07:46:02;5.72;;;2.40;;
61250;SDS011;47126;47.508;8.590;2024-02-23T07:48:30;3.03;;;1.67;;
61250;SDS011;47126;47.508;8.590;2024-02-23T07:50:56;2.85;;;1.48;;
61250;SDS011;47126;47.508;8.590;2024-02-23T07:53:25;5.18;;;2.72;;
61250;SDS011;47126;47.508;8.590;2024-02-23T07:55:51;3.92;;;1.55;;
61250;SDS011;47126;47.508;8.590;2024-02-23T07:58:17;4.68;;;1.80;;
61250;SDS011;47126;47.508;8.590;2024-02-23T08:00:44;3.67;;;2.05;;
61250;SDS011;47126;47.508;8.590;2024-02-23T08:03:10;6.32;;;2.75;;
61250;SDS011;47126;47.508;8.590;2024-02-23T08:05:39;5.50;;;1.50;;
61250;SDS011;47126;47.508;8.590;2024-02-23T08:08:05;2.95;;;1.40;;
61250;SDS011;47126;47.508;8.590;2024-02-23T08:10:32;3.92;;;1.38;;
61250;SDS011;47126;47.508;8.590;2024-02-23T08:12:58;3.47;;;1.33;;
61250;SDS011;47126;47.508;8.590;2024-02-23T08:15:25;5.80;;;1.48;;
61250;SDS011;47126;47.508;8.590;2024-02-23T08:17:51;4.60;;;2.35;;
61250;SDS011;47126;47.508;8.590;2024-02-23T08:20:17;17.70;;;10.23;;
61250;SDS011;47126;47.508;8.590;2024-02-23T08:22:44;20.90;;;8.15;;
61250;SDS011;47126;47.508;8.590;2024-02-23T08:25:10;2.70;;;1.20;;
61250;SDS011;47126;47.508;8.590;2024-02-23T08:27:36;2.63;;;1.40;;
61250;SDS011;47126;47.508;8.590;2024-02-23T08:30:02;4.68;;;0.77;;
61250;SDS011;47126;47.508;8.590;2024-02-23T08:32:32;4.10;;;1.55;;
61250;SDS011;47126;47.508;8.590;2024-02-23T08:34:58;1.05;;;0.50;;
61250;SDS011;47126;47.508;8.590;2024-02-23T08:37:27;4.88;;;0.93;;
61250;SDS011;47126;47.508;8.590;2024-02-23T08:39:53;1.85;;;0.90;;
61250;SDS011;47126;47.508;8.590;2024-02-23T08:42:19;8.07;;;3.15;;
61250;SDS011;47126;47.508;8.590;2024-02-23T08:44:46;27.73;;;10.98;;
61250;SDS011;47126;47.508;8.590;2024-02-23T08:47:12;10.85;;;3.72;;
61250;SDS011;47126;47.508;8.590;2024-02-23T08:49:41;3.45;;;1.05;;
61250;SDS011;47126;47.508;8.590;2024-02-23T08:52:07;1.73;;;0.65;;
61250;SDS011;47126;47.508;8.590;2024-02-23T08:54:33;2.80;;;0.90;;
61250;SDS011;47126;47.508;8.590;2024-02-23T08:56:59;4.05;;;1.05;;
61250;SDS011;47126;47.508;8.590;2024-02-23T08:59:28;1.98;;;1.00;;
61250;SDS011;47126;47.508;8.590;2024-02-23T09:01:55;1.45;;;0.88;;
61250;SDS011;47126;47.508;8.590;2024-02-23T09:04:21;2.42;;;1.00;;
61250;SDS011;47126;47.508;8.590;2024-02-23T09:06:47;3.88;;;1.08;;
61250;SDS011;47126;47.508;8.590;2024-02-23T09:09:15;1.85;;;0.93;;
61250;SDS011;47126;47.508;8.590;2024-02-23T09:11:41;3.45;;;1.30;;
61250;SDS011;47126;47.508;8.590;2024-02-23T09:14:10;5.13;;;2.13;;
61250;SDS011;47126;47.508;8.590;2024-02-23T09:16:36;2.38;;;1.50;;
61250;SDS011;47126;47.508;8.590;2024-02-23T09:19:03;4.50;;;0.98;;
61250;SDS011;47126;47.508;8.590;2024-02-23T09:21:30;2.03;;;1.00;;
61250;SDS011;47126;47.508;8.590;2024-02-23T09:23:56;6.45;;;1.58;;
61250;SDS011;47126;47.508;8.590;2024-02-23T09:26:22;6.65;;;0.80;;
61250;SDS011;47126;47.508;8.590;2024-02-23T09:28:48;3.97;;;0.80;;
61250;SDS011;47126;47.508;8.590;2024-02-23T09:31:14;4.45;;;1.10;;
61250;SDS011;47126;47.508;8.590;2024-02-23T09:33:40;1.85;;;0.70;;
61250;SDS011;47126;47.508;8.590;2024-02-23T09:36:07;1.95;;;0.80;;
61250;SDS011;47126;47.508;8.590;2024-02-23T09:38:34;4.35;;;1.00;;
61250;SDS011;47126;47.508;8.590;2024-02-23T09:41:01;3.90;;;1.10;;
61250;SDS011;47126;47.508;8.590;2024-02-23T09:43:28;5.30;;;0.90;;
61250;SDS011;47126;47.508;8.590;2024-02-23T09:45:57;2.20;;;1.05;;
61250;SDS011;47126;47.508;8.590;2024-02-23T09:48:24;2.38;;;1.20;;
61250;SDS011;47126;47.508;8.590;2024-02-23T09:50:53;4.68;;;1.20;;
61250;SDS011;47126;47.508;8.590;2024-02-23T09:53:22;3.45;;;0.90;;
61250;SDS011;47126;47.508;8.590;2024-02-23T09:55:49;6.18;;;1.42;;
61250;SDS011;47126;47.508;8.590;2024-02-23T09:58:16;5.75;;;1.42;;
61250;SDS011;47126;47.508;8.590;2024-02-23T10:00:42;3.90;;;0.95;;
61250;SDS011;47126;47.508;8.590;2024-02-23T10:03:09;9.43;;;2.50;;
61250;SDS011;47126;47.508;8.590;2024-02-23T10:05:35;11.13;;;2.63;;
61250;SDS011;47126;47.508;8.590;2024-02-23T10:08:04;4.03;;;0.80;;
61250;SDS011;47126;47.508;8.590;2024-02-23T10:10:32;3.47;;;1.20;;
61250;SDS011;47126;47.508;8.590;2024-02-23T10:12:59;2.45;;;0.82;;
61250;SDS011;47126;47.508;8.590;2024-02-23T10:15:28;3.38;;;0.98;;
61250;SDS011;47126;47.508;8.590;2024-02-23T10:17:55;3.47;;;1.20;;
61250;SDS011;47126;47.508;8.590;2024-02-23T10:20:22;3.88;;;0.80;;
61250;SDS011;47126;47.508;8.590;2024-02-23T10:22:49;5.63;;;0.77;;
61250;SDS011;47126;47.508;8.590;2024-02-23T10:25:15;5.75;;;0.82;;
61250;SDS011;47126;47.508;8.590;2024-02-23T10:27:41;0.98;;;0.60;;
61250;SDS011;47126;47.508;8.590;2024-02-23T10:30:11;3.13;;;1.17;;
61250;SDS011;47126;47.508;8.590;2024-02-23T10:32:38;4.28;;;0.70;;
61250;SDS011;47126;47.508;8.590;2024-02-23T10:35:06;3.83;;;0.85;;
61250;SDS011;47126;47.508;8.590;2024-02-23T10:37:43;2.03;;;0.88;;
61250;SDS011;47126;47.508;8.590;2024-02-23T10:40:12;1.33;;;0.70;;
61250;SDS011;47126;47.508;8.590;2024-02-23T10:42:38;2.25;;;0.93;;
61250;SDS011;47126;47.508;8.590;2024-02-23T10:45:05;5.20;;;0.70;;
61250;SDS011;47126;47.508;8.590;2024-02-23T10:47:33;2.38;;;0.60;;
61250;SDS011;47126;47.508;8.590;2024-02-23T10:50:00;4.95;;;0.63;;
61250;SDS011;47126;47.508;8.590;2024-02-23T10:52:27;3.75;;;0.70;;
61250;SDS011;47126;47.508;8.590;2024-02-23T10:54:53;2.25;;;0.50;;
61250;SDS011;47126;47.508;8.590;2024-02-23T10:57:21;1.35;;;0.68;;
61250;SDS011;47126;47.508;8.590;2024-02-23T10:59:47;4.53;;;1.05;;
61250;SDS011;47126;47.508;8.590;2024-02-23T11:02:18;3.40;;;1.13;;
61250;SDS011;47126;47.508;8.590;2024-02-23T11:04:46;4.65;;;0.98;;
61250;SDS011;47126;47.508;8.590;2024-02-23T11:07:15;3.10;;;1.15;;
61250;SDS011;47126;47.508;8.590;2024-02-23T11:09:41;3.97;;;0.75;;
61250;SDS011;47126;47.508;8.590;2024-02-23T11:12:07;7.18;;;0.88;;
61250;SDS011;47126;47.508;8.590;2024-02-23T11:14:35;1.65;;;0.60;;
61250;SDS011;47126;47.508;8.590;2024-02-23T11:17:02;2.13;;;0.75;;
61250;SDS011;47126;47.508;8.590;2024-02-23T11:19:35;5.22;;;1.55;;
61250;SDS011;47126;47.508;8.590;2024-02-23T11:22:01;6.32;;;1.20;;
61250;SDS011;47126;47.508;8.590;2024-02-23T11:24:28;2.65;;;0.85;;
61250;SDS011;47126;47.508;8.590;2024-02-23T11:26:58;5.72;;;1.25;;
61250;SDS011;47126;47.508;8.590;2024-02-23T11:29:29;2.72;;;1.05;;
61250;SDS011;47126;47.508;8.590;2024-02-23T11:31:57;2.78;;;0.60;;
61250;SDS011;47126;47.508;8.590;2024-02-23T11:34:26;1.52;;;0.70;;
61250;SDS011;47126;47.508;8.590;2024-02-23T11:36:53;2.70;;;0.90;;
61250;SDS011;47126;47.508;8.590;2024-02-23T11:39:19;2.83;;;0.90;;
61250;SDS011;47126;47.508;8.590;2024-02-23T11:41:49;1.98;;;0.90;;
61250;SDS011;47126;47.508;8.590;2024-02-23T11:44:16;3.35;;;0.77;;
61250;SDS011;47126;47.508;8.590;2024-02-23T11:46:46;5.88;;;1.00;;
61250;SDS011;47126;47.508;8.590;2024-02-23T11:49:12;5.72;;;1.00;;
61250;SDS011;47126;47.508;8.590;2024-02-23T11:51:38;2.05;;;0.68;;
61250;SDS011;47126;47.508;8.590;2024-02-23T11:54:04;3.38;;;0.80;;
61250;SDS011;47126;47.508;8.590;2024-02-23T11:56:31;3.40;;;0.60;;
61250;SDS011;47126;47.508;8.590;2024-02-23T11:58:57;1.48;;;0.70;;
61250;SDS011;47126;47.508;8.590;2024-02-23T12:01:23;2.03;;;0.77;;
61250;SDS011;47126;47.508;8.590;2024-02-23T12:03:49;1.38;;;0.60;;
61250;SDS011;47126;47.508;8.590;2024-02-23T12:06:15;0.93;;;0.60;;
61250;SDS011;47126;47.508;8.590;2024-02-23T12:08:42;4.93;;;1.02;;
61250;SDS011;47126;47.508;8.590;2024-02-23T12:11:10;1.15;;;0.60;;
61250;SDS011;47126;47.508;8.590;2024-02-23T12:13:39;2.53;;;0.85;;
61250;SDS011;47126;47.508;8.590;2024-02-23T12:16:07;1.23;;;0.63;;
61250;SDS011;47126;47.508;8.590;2024-02-23T12:18:34;1.27;;;0.63;;
61250;SDS011;47126;47.508;8.590;2024-02-23T12:21:01;5.53;;;1.10;;
61250;SDS011;47126;47.508;8.590;2024-02-23T12:23:27;3.55;;;0.77;;
61250;SDS011;47126;47.508;8.590;2024-02-23T12:26:03;3.72;;;0.73;;
61250;SDS011;47126;47.508;8.590;2024-02-23T12:28:29;3.80;;;0.70;;
61250;SDS011;47126;47.508;8.590;2024-02-23T12:31:02;1.33;;;0.50;;
61250;SDS011;47126;47.508;8.590;2024-02-23T12:33:40;5.47;;;0.73;;
61250;SDS011;47126;47.508;8.590;2024-02-23T12:36:07;2.42;;;0.60;;
61250;SDS011;47126;47.508;8.590;2024-02-23T12:38:33;3.58;;;0.65;;
61250;SDS011;47126;47.508;8.590;2024-02-23T12:41:00;1.05;;;0.60;;
61250;SDS011;47126;47.508;8.590;2024-02-23T12:43:26;1.17;;;0.55;;
61250;SDS011;47126;47.508;8.590;2024-02-23T12:45:56;2.88;;;0.65;;
61250;SDS011;47126;47.508;8.590;2024-02-23T12:48:22;5.03;;;0.57;;
61250;SDS011;47126;47.508;8.590;2024-02-23T12:50:48;4.60;;;0.88;;
61250;SDS011;47126;47.508;8.590;2024-02-23T12:56:06;1.73;;;0.75;;
61250;SDS011;47126;47.508;8.590;2024-02-23T12:58:40;2.55;;;0.70;;
61250;SDS011;47126;47.508;8.590;2024-02-23T13:01:09;3.75;;;0.85;;
61250;SDS011;47126;47.508;8.590;2024-02-23T13:03:36;3.45;;;0.65;;
61250;SDS011;47126;47.508;8.590;2024-02-23T13:06:03;2.25;;;0.80;;
61250;SDS011;47126;47.508;8.590;2024-02-23T13:08:29;1.98;;;0.88;;
61250;SDS011;47126;47.508;8.590;2024-02-23T13:10:56;1.67;;;0.60;;
61250;SDS011;47126;47.508;8.590;2024-02-23T13:13:22;5.20;;;0.85;;
61250;SDS011;47126;47.508;8.590;2024-02-23T13:15:51;2.72;;;0.73;;
61250;SDS011;47126;47.508;8.590;2024-02-23T13:18:17;3.90;;;0.80;;
61250;SDS011;47126;47.508;8.590;2024-02-23T13:20:44;2.83;;;0.77;;
61250;SDS011;47126;47.508;8.590;2024-02-23T13:23:10;1.35;;;0.70;;
61250;SDS011;47126;47.508;8.590;2024-02-23T13:25:40;3.30;;;0.60;;
61250;SDS011;47126;47.508;8.590;2024-02-23T13:28:07;3.17;;;1.42;;
61250;SDS011;47126;47.508;8.590;2024-02-23T13:30:34;2.08;;;0.68;;
61250;SDS011;47126;47.508;8.590;2024-02-23T13:33:01;3.03;;;0.70;;
61250;SDS011;47126;47.508;8.590;2024-02-23T13:35:27;6.68;;;3.40;;
61250;SDS011;47126;47.508;8.590;2024-02-23T13:37:53;5.80;;;1.45;;
61250;SDS011;47126;47.508;8.590;2024-02-23T13:40:19;4.53;;;0.52;;
61250;SDS011;47126;47.508;8.590;2024-02-23T13:42:45;1.95;;;0.82;;
61250;SDS011;47126;47.508;8.590;2024-02-23T13:45:14;3.03;;;0.85;;
61250;SDS011;47126;47.508;8.590;2024-02-23T13:47:43;4.57;;;0.68;;
61250;SDS011;47126;47.508;8.590;2024-02-23T13:50:20;2.25;;;0.57;;
61250;SDS011;47126;47.508;8.590;2024-02-23T13:52:47;3.35;;;0.50;;
61250;SDS011;47126;47.508;8.590;2024-02-23T13:55:13;3.00;;;0.70;;
61250;SDS011;47126;47.508;8.590;2024-02-23T13:57:39;1.85;;;0.63;;
61250;SDS011;47126;47.508;8.590;2024-02-23T14:00:05;3.00;;;0.60;;
61250;SDS011;47126;47.508;8.590;2024-02-23T14:02:37;2.47;;;0.50;;
61250;SDS011;47126;47.508;8.590;2024-02-23T14:05:05;1.25;;;0.63;;
61250;SDS011;47126;47.508;8.590;2024-02-23T14:07:34;1.48;;;0.85;;
61250;SDS011;47126;47.508;8.590;2024-02-23T14:10:01;3.78;;;0.98;;
61250;SDS011;47126;47.508;8.590;2024-02-23T14:12:28;3.03;;;0.77;;
61250;SDS011;47126;47.508;8.590;2024-02-23T14:14:57;4.05;;;0.70;;
61250;SDS011;47126;47.508;8.590;2024-02-23T14:17:23;4.30;;;0.70;;
61250;SDS011;47126;47.508;8.590;2024-02-23T14:19:49;3.50;;;0.73;;
61250;SDS011;47126;47.508;8.590;2024-02-23T14:22:18;3.90;;;1.00;;
61250;SDS011;47126;47.508;8.590;2024-02-23T14:24:44;2.55;;;0.70;;
61250;SDS011;47126;47.508;8.590;2024-02-23T14:27:11;1.77;;;0.65;;
61250;SDS011;47126;47.508;8.590;2024-02-23T14:29:37;2.42;;;0.73;;
61250;SDS011;47126;47.508;8.590;2024-02-23T14:32:03;2.65;;;0.70;;
61250;SDS011;47126;47.508;8.590;2024-02-23T14:34:29;2.70;;;0.70;;
61250;SDS011;47126;47.508;8.590;2024-02-23T14:36:58;4.35;;;0.90;;
61250;SDS011;47126;47.508;8.590;2024-02-23T14:39:24;1.92;;;0.68;;
61250;SDS011;47126;47.508;8.590;2024-02-23T14:41:50;2.05;;;0.60;;
61250;SDS011;47126;47.508;8.590;2024-02-23T14:44:16;3.35;;;0.70;;
61250;SDS011;47126;47.508;8.590;2024-02-23T14:46:42;4.28;;;1.08;;
61250;SDS011;47126;47.508;8.590;2024-02-23T14:49:08;4.75;;;0.90;;